Time;durP1;ratioP1;P1;durP2;ratioP2;P2;SDS_P1;SDS_P2;PMS_P1;PMS_P2;Temp;Humidity;BMP_temperature;BMP_pressure;BME280_temperature;BME280_humidity;BME280_pressure;Samples;Min_cycle;Max_cycle;Signal;HPM_P1;HPM_P2
2021/08/05 00:00:46;;;;;;;15.00;13.48;;;15.90;99.90;;;;;;4993332;28;25109;-66
2021/08/05 00:03:11;;;;;;;17.38;14.55;;;15.80;99.90;;;;;;5007223;28;25073;-68
2021/08/05 00:05:38;;;;;;;15.50;13.52;;;15.70;99.90;;;;;;5010596;28;25158;-68
2021/08/05 00:08:04;;;;;;;16.77;14.93;;;15.80;99.90;;;;;;4996277;28;25116;-67
2021/08/05 00:10:30;;;;;;;17.80;13.48;;;15.90;99.90;;;;;;4990896;28;25076;-68
2021/08/05 00:12:56;;;;;;;16.95;14.27;;;16.10;99.90;;;;;;4990756;28;25141;-66
2021/08/05 00:15:21;;;;;;;18.17;15.00;;;16.20;99.90;;;;;;4988285;28;25150;-67
2021/08/05 00:17:47;;;;;;;20.10;16.05;;;16.20;99.90;;;;;;4988966;28;25073;-68
2021/08/05 00:20:13;;;;;;;16.20;14.50;;;16.10;99.90;;;;;;4987926;28;25065;-66
2021/08/05 00:22:38;;;;;;;16.15;13.60;;;16.10;99.90;;;;;;4987835;28;25094;-66
2021/08/05 00:25:04;;;;;;;15.82;13.50;;;16.00;99.90;;;;;;4988239;28;25114;-67
2021/08/05 00:27:30;;;;;;;18.02;13.05;;;15.90;99.90;;;;;;4988917;28;25061;-67
2021/08/05 00:29:55;;;;;;;17.80;13.95;;;16.00;99.90;;;;;;4988954;28;25066;-67
2021/08/05 00:32:21;;;;;;;19.20;15.85;;;15.90;99.90;;;;;;4988460;28;25143;-66
2021/08/05 00:34:47;;;;;;;22.88;16.40;;;15.80;99.90;;;;;;4988385;28;25148;-66
2021/08/05 00:37:12;;;;;;;21.98;18.27;;;15.70;99.90;;;;;;4987899;28;25067;-67
2021/08/05 00:39:38;;;;;;;25.33;17.88;;;15.60;99.90;;;;;;4988775;28;25067;-67
2021/08/05 00:42:04;;;;;;;19.77;17.67;;;15.60;99.90;;;;;;5006509;28;25077;-65
2021/08/05 00:44:30;;;;;;;21.45;18.70;;;15.70;99.90;;;;;;4977202;28;25057;-67
2021/08/05 00:46:56;;;;;;;21.98;18.85;;;15.70;99.90;;;;;;4986826;28;25058;-66
2021/08/05 00:49:22;;;;;;;22.15;18.80;;;15.70;99.90;;;;;;5002368;28;25066;-69
2021/08/05 00:51:48;;;;;;;20.45;18.25;;;15.80;99.90;;;;;;5010301;28;25066;-68
2021/08/05 00:54:13;;;;;;;21.92;17.95;;;15.90;99.90;;;;;;5010297;28;25058;-66
2021/08/05 00:56:39;;;;;;;24.17;18.50;;;15.90;99.90;;;;;;4993159;28;25048;-68
2021/08/05 00:59:04;;;;;;;19.73;17.23;;;16.00;99.90;;;;;;4990143;28;25062;-65
2021/08/05 01:01:43;;;;;;;20.38;17.50;;;16.10;99.90;;;;;;4987026;28;25089;-67
2021/08/05 01:04:09;;;;;;;19.27;17.27;;;16.20;99.90;;;;;;4992019;28;25135;-66
2021/08/05 01:06:40;;;;;;;22.23;19.00;;;16.30;99.90;;;;;;4989722;28;25071;-66
2021/08/05 01:09:25;;;;;;;22.90;19.73;;;16.30;99.90;;;;;;4983048;28;25145;-66
2021/08/05 01:12:00;;;;;;;23.90;20.23;;;16.20;99.90;;;;;;4986607;28;25075;-66
2021/08/05 01:14:31;;;;;;;25.80;20.50;;;16.10;99.90;;;;;;4985978;28;25103;-66
2021/08/05 01:16:58;;;;;;;27.23;19.97;;;16.10;99.90;;;;;;4987674;28;25156;-66
2021/08/05 01:19:47;;;;;;;20.95;18.63;;;16.00;99.90;;;;;;4987227;28;25051;-66
2021/08/05 01:22:22;;;;;;;22.55;19.58;;;16.00;99.90;;;;;;4986660;28;25061;-66
2021/08/05 01:24:57;;;;;;;21.77;19.45;;;15.90;99.90;;;;;;4986356;28;25109;-67
2021/08/05 01:27:25;;;;;;;25.90;20.20;;;15.90;99.90;;;;;;4985040;28;25073;-68
2021/08/05 01:29:52;;;;;;;26.17;21.25;;;15.90;99.90;;;;;;4989211;28;25394;-68
2021/08/05 01:32:19;;;;;;;27.60;21.20;;;15.90;99.90;;;;;;4988074;28;25046;-67
2021/08/05 01:34:45;;;;;;;23.42;20.30;;;15.80;99.90;;;;;;4989020;28;25064;-65
2021/08/05 01:37:11;;;;;;;21.85;18.48;;;15.90;99.90;;;;;;4988351;28;25076;-68
2021/08/05 01:39:39;;;;;;;28.40;21.60;;;16.10;99.90;;;;;;4988710;28;25052;-68
2021/08/05 01:42:06;;;;;;;31.70;24.58;;;16.10;99.90;;;;;;4989377;28;25087;-66
2021/08/05 01:44:32;;;;;;;29.60;24.52;;;16.00;99.90;;;;;;4991937;28;25140;-66
2021/08/05 01:46:58;;;;;;;28.30;22.42;;;15.90;99.90;;;;;;4991220;28;25063;-66
2021/08/05 01:49:24;;;;;;;43.47;22.77;;;16.00;99.90;;;;;;4990557;28;25086;-68
2021/08/05 01:51:51;;;;;;;31.70;24.35;;;15.90;99.90;;;;;;4991708;28;25090;-67
2021/08/05 01:54:16;;;;;;;28.80;25.55;;;16.00;99.90;;;;;;4991682;28;25209;-67
2021/08/05 01:56:42;;;;;;;30.48;24.95;;;15.90;99.90;;;;;;4990833;28;25102;-66
2021/08/05 01:59:07;;;;;;;31.73;26.85;;;15.90;99.90;;;;;;4991885;28;25080;-67
2021/08/05 02:01:34;;;;;;;30.83;25.08;;;15.90;99.90;;;;;;4990615;28;25144;-68
2021/08/05 02:04:43;;;;;;;31.13;24.48;;;16.00;99.90;;;;;;4991923;28;25065;-66
2021/08/05 02:07:21;;;;;;;30.15;26.33;;;16.10;99.90;;;;;;4979748;28;25161;-67
2021/08/05 02:09:57;;;;;;;32.75;27.17;;;16.10;99.90;;;;;;4991796;28;25056;-65
2021/08/05 02:12:23;;;;;;;29.58;25.75;;;16.10;99.90;;;;;;4990308;28;25110;-66
2021/08/05 02:14:53;;;;;;;33.78;27.52;;;16.10;99.90;;;;;;4991593;28;25058;-68
2021/08/05 02:17:19;;;;;;;32.85;27.55;;;16.10;99.90;;;;;;4979886;28;25152;-66
2021/08/05 02:19:45;;;;;;;34.95;29.83;;;16.10;99.90;;;;;;4992081;28;25156;-67
2021/08/05 02:22:11;;;;;;;34.13;28.95;;;16.00;99.90;;;;;;4990820;28;25095;-66
2021/08/05 02:24:37;;;;;;;32.88;27.00;;;16.00;99.90;;;;;;4991946;28;25081;-67
2021/08/05 02:27:03;;;;;;;30.35;26.00;;;16.20;99.90;;;;;;4991425;28;25129;-69
2021/08/05 02:29:31;;;;;;;30.58;25.95;;;16.40;99.90;;;;;;4991944;28;25155;-67
2021/08/05 02:31:57;;;;;;;29.95;25.70;;;16.50;99.90;;;;;;4990698;28;25066;-67
2021/08/05 02:34:24;;;;;;;30.50;25.73;;;16.60;99.90;;;;;;4991031;28;25057;-67
2021/08/05 02:36:50;;;;;;;33.45;26.98;;;16.70;99.90;;;;;;4991227;28;25113;-67
2021/08/05 02:39:16;;;;;;;35.85;30.05;;;16.50;99.90;;;;;;4989788;28;25136;-66
2021/08/05 02:41:42;;;;;;;35.58;29.80;;;16.30;99.90;;;;;;4990674;28;25104;-67
2021/08/05 02:44:08;;;;;;;35.60;29.77;;;16.20;99.90;;;;;;5004460;28;25072;-68
2021/08/05 02:46:35;;;;;;;39.47;29.52;;;16.10;99.90;;;;;;4990702;28;25065;-67
2021/08/05 02:49:02;;;;;;;36.08;28.45;;;16.20;99.90;;;;;;4990430;28;25075;-67
2021/08/05 02:51:28;;;;;;;37.08;28.95;;;16.20;99.90;;;;;;4990277;28;25113;-67
2021/08/05 02:53:55;;;;;;;33.17;29.27;;;16.20;99.90;;;;;;4996296;28;25134;-67
2021/08/05 02:56:21;;;;;;;30.83;27.50;;;16.10;99.90;;;;;;4990610;28;25076;-67
2021/08/05 02:58:47;;;;;;;39.08;30.23;;;16.10;99.90;;;;;;4988038;28;25166;-68
2021/08/05 03:01:13;;;;;;;39.03;29.23;;;16.20;99.90;;;;;;4993373;28;25100;-68
2021/08/05 03:03:40;;;;;;;38.15;30.83;;;16.10;99.90;;;;;;4998657;28;25109;-67
2021/08/05 03:06:06;;;;;;;37.17;31.25;;;16.10;99.90;;;;;;4997267;28;25063;-67
2021/08/05 03:08:42;;;;;;;38.22;32.15;;;15.90;99.90;;;;;;4999403;28;25069;-66
2021/08/05 03:11:08;;;;;;;36.10;30.13;;;15.90;99.90;;;;;;5004374;28;25052;-68
2021/08/05 03:13:34;;;;;;;34.40;27.23;;;15.90;99.90;;;;;;5012872;28;25094;-69
2021/08/05 03:16:00;;;;;;;30.80;25.88;;;16.00;99.90;;;;;;5012922;28;25069;-68
2021/08/05 03:18:25;;;;;;;32.45;27.13;;;16.20;99.90;;;;;;4995132;28;25058;-67
2021/08/05 03:20:51;;;;;;;34.30;27.88;;;16.20;99.90;;;;;;4986692;28;25082;-68
2021/08/05 03:23:16;;;;;;;34.63;29.98;;;16.20;99.90;;;;;;4990525;28;25079;-67
2021/08/05 03:25:42;;;;;;;36.88;30.73;;;16.10;99.90;;;;;;4990625;28;25077;-66
2021/08/05 03:28:07;;;;;;;37.75;30.27;;;16.10;99.90;;;;;;4989802;28;25060;-67
2021/08/05 03:30:33;;;;;;;35.55;29.40;;;16.10;99.90;;;;;;4989333;28;25054;-67
2021/08/05 03:33:00;;;;;;;39.10;31.65;;;16.20;99.90;;;;;;4989954;28;25068;-67
2021/08/05 03:35:26;;;;;;;36.30;30.10;;;16.00;99.90;;;;;;4990551;28;25099;-67
2021/08/05 03:37:52;;;;;;;33.63;28.63;;;16.10;99.90;;;;;;4998158;28;25066;-67
2021/08/05 03:40:17;;;;;;;35.17;30.08;;;16.10;99.90;;;;;;4988927;28;25102;-66
2021/08/05 03:42:43;;;;;;;39.13;32.13;;;16.10;99.90;;;;;;4995052;28;25127;-66
2021/08/05 03:45:09;;;;;;;38.63;31.67;;;16.00;99.90;;;;;;4991057;28;25098;-65
2021/08/05 03:47:34;;;;;;;36.10;31.30;;;15.90;99.90;;;;;;4989719;28;25076;-67
2021/08/05 03:50:00;;;;;;;41.83;33.63;;;15.90;99.90;;;;;;4988789;28;25065;-66
2021/08/05 03:52:26;;;;;;;43.42;35.33;;;15.80;99.90;;;;;;4989817;28;25069;-67
2021/08/05 03:54:51;;;;;;;42.13;34.70;;;15.80;99.90;;;;;;4989922;28;25083;-66
2021/08/05 03:57:16;;;;;;;43.13;34.25;;;15.90;99.90;;;;;;4993224;28;25080;-68
2021/08/05 03:59:42;;;;;;;37.45;31.58;;;15.90;99.90;;;;;;5002748;28;25070;-68
2021/08/05 04:02:08;;;;;;;42.05;33.33;;;16.00;99.90;;;;;;5011310;28;25049;-67
2021/08/05 04:04:33;;;;;;;38.88;32.63;;;16.10;99.90;;;;;;5005231;28;25108;-65
2021/08/05 04:06:59;;;;;;;38.25;31.77;;;16.10;99.90;;;;;;4991007;28;25086;-66
2021/08/05 04:09:24;;;;;;;41.33;31.40;;;16.10;99.90;;;;;;4988580;28;25143;-67
2021/08/05 04:11:50;;;;;;;37.53;31.15;;;16.10;99.90;;;;;;5009828;28;25079;-66
2021/08/05 04:14:15;;;;;;;43.17;31.25;;;16.10;99.90;;;;;;4988719;28;25061;-66
2021/08/05 04:16:41;;;;;;;37.25;31.65;;;16.20;99.90;;;;;;4987591;28;25109;-66
2021/08/05 04:19:07;;;;;;;46.70;36.10;;;16.20;99.90;;;;;;4989228;28;25073;-67
2021/08/05 04:21:32;;;;;;;41.63;35.78;;;16.20;99.90;;;;;;4989100;28;25091;-67
2021/08/05 04:23:58;;;;;;;49.08;36.00;;;16.10;99.90;;;;;;4987439;28;25097;-68
2021/08/05 04:26:23;;;;;;;40.20;33.90;;;16.10;99.90;;;;;;4986936;28;25095;-69
2021/08/05 04:28:49;;;;;;;43.97;33.97;;;16.10;99.90;;;;;;4988290;28;25133;-67
2021/08/05 04:31:14;;;;;;;44.92;33.53;;;16.20;99.90;;;;;;4989732;28;25065;-66
2021/08/05 04:33:40;;;;;;;47.25;35.53;;;16.20;99.90;;;;;;4989058;28;25089;-66
2021/08/05 04:36:06;;;;;;;42.10;35.58;;;16.10;99.90;;;;;;4989120;28;25056;-67
2021/08/05 04:38:31;;;;;;;45.30;36.10;;;16.20;99.90;;;;;;4988815;28;25052;-66
2021/08/05 04:40:57;;;;;;;47.80;37.70;;;16.20;99.90;;;;;;4988376;28;25140;-67
2021/08/05 04:43:22;;;;;;;44.70;35.92;;;16.10;99.90;;;;;;4988928;28;25094;-66
2021/08/05 04:45:48;;;;;;;42.08;34.90;;;16.10;99.90;;;;;;4988662;28;25059;-67
2021/08/05 04:48:13;;;;;;;38.30;30.02;;;16.10;99.90;;;;;;4986734;28;25074;-66
2021/08/05 04:50:41;;;;;;;35.55;29.17;;;16.30;99.90;;;;;;4988417;28;25079;-66
2021/08/05 04:53:07;;;;;;;35.65;29.65;;;16.50;99.90;;;;;;4987761;28;25107;-67
2021/08/05 04:55:34;;;;;;;40.83;34.15;;;16.60;99.90;;;;;;4988178;28;25086;-67
2021/08/05 04:58:03;;;;;;;38.97;32.78;;;16.70;99.90;;;;;;4997003;28;25067;-65
2021/08/05 05:00:31;;;;;;;42.80;35.15;;;16.50;99.90;;;;;;4989800;28;25081;-66
2021/08/05 05:02:57;;;;;;;39.88;32.05;;;16.40;99.90;;;;;;4993799;28;25152;-67
2021/08/05 05:05:25;;;;;;;39.67;32.92;;;16.40;99.90;;;;;;4992610;28;25170;-66
2021/08/05 05:07:51;;;;;;;44.28;33.85;;;16.50;99.90;;;;;;5005789;28;25064;-68
2021/08/05 05:10:17;;;;;;;43.83;35.50;;;16.50;99.90;;;;;;5007745;28;25076;-67
2021/08/05 05:12:44;;;;;;;39.78;31.98;;;16.40;99.90;;;;;;5008377;28;25103;-67
2021/08/05 05:15:11;;;;;;;45.40;33.33;;;16.50;99.90;;;;;;5010052;28;25074;-67
2021/08/05 05:17:37;;;;;;;34.13;26.00;;;16.60;99.90;;;;;;5015955;28;25076;-68
2021/08/05 05:20:04;;;;;;;40.63;32.65;;;16.50;99.90;;;;;;5013506;28;25082;-68
2021/08/05 05:22:31;;;;;;;39.40;31.25;;;16.50;99.90;;;;;;5016685;28;25064;-68
2021/08/05 05:24:56;;;;;;;37.17;31.08;;;16.50;99.90;;;;;;5012426;28;25066;-66
2021/08/05 05:27:24;;;;;;;35.92;30.98;;;16.50;99.90;;;;;;4997917;28;25112;-67
2021/08/05 05:29:51;;;;;;;40.83;31.83;;;16.60;99.90;;;;;;4991498;28;25055;-69
2021/08/05 05:32:17;;;;;;;36.67;31.42;;;16.60;99.90;;;;;;4990283;28;25145;-67
2021/08/05 05:34:43;;;;;;;37.25;31.42;;;16.50;99.90;;;;;;4987422;28;25058;-66
2021/08/05 05:37:09;;;;;;;40.38;31.63;;;16.70;99.90;;;;;;4987567;28;25077;-66
2021/08/05 05:39:35;;;;;;;46.15;33.97;;;16.80;99.90;;;;;;4987428;28;25121;-66
2021/08/05 05:42:02;;;;;;;42.22;33.83;;;16.90;99.90;;;;;;4988349;28;25086;-66
2021/08/05 05:44:27;;;;;;;42.35;36.10;;;16.90;99.90;;;;;;4983787;28;25056;-68
2021/08/05 05:46:53;;;;;;;40.67;34.72;;;16.80;99.90;;;;;;4994934;28;25062;-66
2021/08/05 05:49:18;;;;;;;55.42;37.97;;;16.70;99.90;;;;;;4987509;28;25099;-66
2021/08/05 05:51:44;;;;;;;49.95;39.33;;;16.70;99.90;;;;;;4988132;28;25059;-67
2021/08/05 05:54:10;;;;;;;46.17;37.83;;;16.70;99.90;;;;;;4999264;28;25052;-66
2021/08/05 05:56:35;;;;;;;42.40;36.03;;;16.70;99.90;;;;;;5005786;28;25077;-67
2021/08/05 05:59:01;;;;;;;40.22;35.80;;;16.80;99.90;;;;;;4997866;28;24892;-68
2021/08/05 06:01:26;;;;;;;43.17;36.47;;;17.10;99.90;;;;;;4988008;28;25056;-66
2021/08/05 06:03:52;;;;;;;44.55;37.05;;;17.30;99.90;;;;;;4987540;28;25078;-68
2021/08/05 06:06:17;;;;;;;46.42;36.33;;;17.30;99.90;;;;;;4987811;28;25124;-66
2021/08/05 06:08:43;;;;;;;49.35;37.88;;;17.30;99.90;;;;;;4988674;28;25065;-67
2021/08/05 06:11:08;;;;;;;47.70;37.90;;;17.30;99.90;;;;;;4994119;28;25059;-68
2021/08/05 06:13:34;;;;;;;47.47;38.13;;;17.30;99.90;;;;;;4990276;28;25137;-67
2021/08/05 06:15:59;;;;;;;44.83;37.40;;;17.30;99.90;;;;;;4996790;28;25140;-68
2021/08/05 06:18:25;;;;;;;44.72;37.72;;;17.40;99.90;;;;;;5004470;28;25084;-68
2021/08/05 06:20:51;;;;;;;45.20;38.63;;;17.40;99.90;;;;;;5008790;28;25070;-68
2021/08/05 06:23:16;;;;;;;46.78;38.78;;;17.50;99.90;;;;;;5008698;28;25076;-67
2021/08/05 06:25:42;;;;;;;44.22;37.70;;;17.50;99.90;;;;;;4990425;28;25054;-66
2021/08/05 06:28:07;;;;;;;46.85;40.33;;;17.50;99.90;;;;;;4995756;28;25126;-67
2021/08/05 06:30:33;;;;;;;45.15;37.63;;;17.40;99.90;;;;;;5004047;28;25061;-67
2021/08/05 06:32:59;;;;;;;44.28;36.30;;;17.40;99.90;;;;;;4998632;28;25069;-67
2021/08/05 06:35:25;;;;;;;41.10;34.47;;;17.60;99.90;;;;;;5003660;28;25075;-67
2021/08/05 06:37:51;;;;;;;44.08;37.55;;;17.80;99.90;;;;;;5004424;28;25073;-67
2021/08/05 06:40:17;;;;;;;43.00;37.10;;;17.90;99.90;;;;;;4995749;28;25079;-67
2021/08/05 06:42:43;;;;;;;41.90;35.13;;;17.80;99.90;;;;;;4990604;28;25081;-67
2021/08/05 06:45:10;;;;;;;38.50;33.85;;;17.90;99.90;;;;;;4994948;28;25094;-65
2021/08/05 06:47:42;;;;;;;40.47;35.50;;;17.90;99.90;;;;;;4993838;28;25178;-67
2021/08/05 06:50:08;;;;;;;37.65;33.60;;;17.90;99.90;;;;;;5007486;28;25141;-66
2021/08/05 06:52:34;;;;;;;42.45;35.50;;;18.00;99.90;;;;;;4990683;28;25059;-67
2021/08/05 06:55:00;;;;;;;42.35;35.55;;;18.20;99.90;;;;;;4989166;28;25061;-66
2021/08/05 06:57:25;;;;;;;43.42;33.70;;;18.30;99.90;;;;;;4990131;28;25105;-68
2021/08/05 06:59:51;;;;;;;40.33;32.75;;;18.40;99.90;;;;;;4989667;28;25059;-66
2021/08/05 07:02:17;;;;;;;36.08;31.40;;;18.40;99.90;;;;;;4995207;28;25081;-68
2021/08/05 07:04:42;;;;;;;38.83;30.88;;;18.30;99.90;;;;;;5025033;28;25104;-69
2021/08/05 07:07:08;;;;;;;35.53;30.02;;;18.20;99.90;;;;;;5012936;28;25079;-68
2021/08/05 07:09:33;;;;;;;37.22;31.63;;;18.30;99.90;;;;;;5007770;28;25092;-68
2021/08/05 07:11:59;;;;;;;36.55;31.38;;;18.30;99.90;;;;;;4995907;28;25082;-67
2021/08/05 07:14:24;;;;;;;38.13;29.63;;;18.40;99.90;;;;;;4999829;28;25078;-66
2021/08/05 07:16:50;;;;;;;40.22;29.20;;;18.40;99.90;;;;;;5002873;28;25058;-66
2021/08/05 07:19:16;;;;;;;35.53;28.63;;;18.50;99.90;;;;;;4989961;28;25084;-66
2021/08/05 07:21:41;;;;;;;30.40;26.38;;;18.60;99.90;;;;;;4990207;28;25052;-66
2021/08/05 07:24:07;;;;;;;34.40;26.42;;;18.80;99.90;;;;;;4989974;28;25149;-66
2021/08/05 07:26:32;;;;;;;34.72;28.80;;;18.90;99.90;;;;;;4991263;28;25130;-68
2021/08/05 07:28:58;;;;;;;32.10;27.02;;;19.00;99.90;;;;;;4988462;28;25136;-66
2021/08/05 07:31:24;;;;;;;33.78;28.85;;;19.00;99.90;;;;;;4991105;28;25067;-67
2021/08/05 07:33:50;;;;;;;35.17;28.38;;;19.20;99.90;;;;;;4989976;28;25059;-66
2021/08/05 07:36:16;;;;;;;33.70;27.17;;;19.10;99.90;;;;;;4989719;28;25068;-66
2021/08/05 07:38:42;;;;;;;32.58;27.25;;;18.90;99.90;;;;;;4990583;28;25075;-67
2021/08/05 07:41:08;;;;;;;34.72;29.77;;;18.70;99.90;;;;;;4992991;28;25154;-66
2021/08/05 07:43:34;;;;;;;35.42;29.63;;;18.50;99.90;;;;;;4992406;28;25052;-66
2021/08/05 07:46:00;;;;;;;35.50;27.58;;;18.40;99.90;;;;;;4990641;28;25076;-68
2021/08/05 07:48:25;;;;;;;29.55;25.83;;;18.60;99.90;;;;;;4990654;28;25066;-68
2021/08/05 07:50:51;;;;;;;37.42;25.15;;;19.00;99.90;;;;;;4990802;28;25062;-66
2021/08/05 07:53:16;;;;;;;30.05;22.85;;;19.30;99.90;;;;;;4995142;28;24834;-67
2021/08/05 07:55:42;;;;;;;32.55;24.30;;;19.20;99.90;;;;;;4997963;28;25114;-66
2021/08/05 07:58:07;;;;;;;26.38;22.25;;;19.20;99.90;;;;;;4988659;28;25115;-67
2021/08/05 08:00:35;;;;;;;27.60;21.90;;;19.20;99.90;;;;;;4992866;28;25093;-66
2021/08/05 08:03:01;;;;;;;27.65;23.73;;;19.40;99.90;;;;;;4989892;28;25053;-67
2021/08/05 08:05:27;;;;;;;29.75;22.05;;;19.40;99.90;;;;;;4992236;28;25128;-66
2021/08/05 08:07:53;;;;;;;25.52;22.02;;;19.50;99.90;;;;;;4989128;28;25082;-67
2021/08/05 08:10:18;;;;;;;29.33;23.95;;;19.50;99.90;;;;;;4989933;28;25132;-66
2021/08/05 08:12:44;;;;;;;25.75;22.15;;;19.60;99.90;;;;;;4989430;28;25109;-67
2021/08/05 08:15:10;;;;;;;27.27;22.08;;;19.70;99.90;;;;;;4991856;28;25153;-67
2021/08/05 08:17:36;;;;;;;24.92;22.23;;;19.90;99.90;;;;;;4987798;28;25088;-67
2021/08/05 08:20:04;;;;;;;22.65;19.95;;;19.80;99.90;;;;;;4988151;28;25108;-67
2021/08/05 08:22:30;;;;;;;26.10;18.25;;;19.70;99.90;;;;;;4989917;28;25063;-68
2021/08/05 08:24:55;;;;;;;23.13;18.75;;;19.60;99.90;;;;;;4989683;28;25063;-68
2021/08/05 08:27:21;;;;;;;21.50;18.23;;;19.80;99.90;;;;;;4989546;28;25083;-67
2021/08/05 08:29:46;;;;;;;22.20;19.83;;;20.00;99.90;;;;;;4989875;28;25170;-66
2021/08/05 08:32:12;;;;;;;25.08;20.65;;;19.70;99.90;;;;;;4988739;28;25124;-69
2021/08/05 08:34:37;;;;;;;24.42;21.40;;;19.40;99.90;;;;;;4987212;28;25071;-66
2021/08/05 08:37:03;;;;;;;24.98;21.00;;;19.60;99.90;;;;;;4989008;28;25117;-67
2021/08/05 08:39:29;;;;;;;26.73;21.23;;;19.70;99.90;;;;;;4987609;28;25069;-68
2021/08/05 08:41:54;;;;;;;24.73;19.10;;;19.40;99.90;;;;;;4989928;28;25160;-68
2021/08/05 08:44:20;;;;;;;22.13;18.70;;;19.50;99.90;;;;;;4989098;28;25066;-68
2021/08/05 08:46:47;;;;;;;27.08;20.85;;;19.70;99.90;;;;;;4988709;28;25070;-69
2021/08/05 08:49:13;;;;;;;23.50;18.88;;;19.60;99.90;;;;;;4987964;28;25142;-67
2021/08/05 08:51:39;;;;;;;23.75;19.88;;;19.80;99.90;;;;;;4988666;28;25065;-67
2021/08/05 08:54:07;;;;;;;26.27;19.88;;;20.10;99.90;;;;;;4988729;28;25159;-67
2021/08/05 08:56:36;;;;;;;29.15;23.02;;;20.10;99.90;;;;;;4988699;28;25080;-68
2021/08/05 08:59:01;;;;;;;25.45;21.13;;;20.10;99.90;;;;;;4989445;28;25137;-67
2021/08/05 09:01:29;;;;;;;25.98;21.65;;;19.90;99.90;;;;;;4988844;28;25136;-67
2021/08/05 09:03:54;;;;;;;25.35;20.13;;;19.90;99.90;;;;;;4989594;28;25069;-68
2021/08/05 09:06:20;;;;;;;24.55;20.90;;;19.90;99.90;;;;;;4987241;28;25137;-68
2021/08/05 09:08:46;;;;;;;21.48;19.15;;;20.10;99.90;;;;;;4987087;28;25073;-66
2021/08/05 09:11:11;;;;;;;23.45;17.63;;;20.50;99.90;;;;;;4987687;28;25069;-68
2021/08/05 09:13:37;;;;;;;24.67;18.65;;;20.90;99.90;;;;;;4987110;28;25105;-68
2021/08/05 09:16:29;;;;;;;22.83;16.73;;;21.20;99.90;;;;;;4998462;28;25076;-67
2021/08/05 09:19:06;;;;;;;20.40;17.48;;;21.20;99.90;;;;;;4989014;28;25071;-67
2021/08/05 09:21:32;;;;;;;27.38;18.67;;;20.60;99.90;;;;;;4990465;28;25084;-66
2021/08/05 09:24:09;;;;;;;21.33;17.98;;;20.50;99.90;;;;;;4994240;28;25100;-67
2021/08/05 09:26:37;;;;;;;18.95;16.65;;;20.20;99.90;;;;;;5009595;28;25061;-70
2021/08/05 09:29:13;;;;;;;22.33;17.73;;;20.60;99.90;;;;;;5022794;28;25063;-68
2021/08/05 09:32:00;;;;;;;22.15;17.98;;;20.90;99.90;;;;;;4992147;28;25070;-68
2021/08/05 09:34:39;;;;;;;23.63;18.58;;;20.90;99.90;;;;;;4982772;28;25074;-68
2021/08/05 09:37:08;;;;;;;20.13;17.60;;;20.80;99.90;;;;;;4989179;28;25136;-67
2021/08/05 09:39:39;;;;;;;20.60;17.38;;;20.60;99.90;;;;;;4978082;28;25064;-67
2021/08/05 09:42:11;;;;;;;22.35;18.50;;;20.80;99.90;;;;;;4989444;28;25065;-68
2021/08/05 09:44:37;;;;;;;21.38;17.77;;;21.00;99.90;;;;;;5002629;28;25059;-68
2021/08/05 09:47:05;;;;;;;19.48;17.38;;;21.00;99.90;;;;;;5019449;28;25085;-68
2021/08/05 09:49:31;;;;;;;23.15;18.00;;;20.90;99.90;;;;;;4997181;28;25125;-68
2021/08/05 09:51:57;;;;;;;21.00;17.17;;;20.90;99.90;;;;;;4994585;28;25075;-67
2021/08/05 09:54:36;;;;;;;22.83;16.73;;;20.90;99.90;;;;;;4990127;28;25069;-69
2021/08/05 09:57:02;;;;;;;20.60;16.38;;;21.30;99.90;;;;;;4977950;28;25068;-69
2021/08/05 09:59:28;;;;;;;20.95;17.15;;;21.30;99.90;;;;;;4990063;28;25070;-67
2021/08/05 10:02:05;;;;;;;18.55;15.88;;;21.20;99.90;;;;;;4987422;28;25072;-67
2021/08/05 10:04:33;;;;;;;20.30;15.25;;;21.20;99.90;;;;;;5005343;28;25058;-68
2021/08/05 10:07:01;;;;;;;18.85;14.80;;;21.70;99.90;;;;;;5007450;28;25052;-69
2021/08/05 10:09:27;;;;;;;22.42;17.67;;;22.10;99.90;;;;;;4995119;28;25106;-68
2021/08/05 10:12:14;;;;;;;21.95;17.48;;;21.90;99.90;;;;;;5008660;28;25068;-70
2021/08/05 10:14:41;;;;;;;21.20;17.05;;;21.70;99.90;;;;;;5014986;28;25086;-69
2021/08/05 10:17:08;;;;;;;19.63;15.27;;;21.80;99.90;;;;;;5008976;28;25103;-69
2021/08/05 10:19:37;;;;;;;22.00;17.73;;;22.00;99.90;;;;;;5011497;28;25086;-69
2021/08/05 10:22:03;;;;;;;26.33;19.70;;;22.20;99.90;;;;;;5010414;28;25055;-69
2021/08/05 10:24:30;;;;;;;20.92;17.73;;;21.80;99.90;;;;;;5005532;28;25060;-69
2021/08/05 10:26:56;;;;;;;25.92;18.52;;;21.90;99.90;;;;;;4994598;28;25084;-69
2021/08/05 10:29:21;;;;;;;22.85;16.73;;;21.60;99.90;;;;;;4995126;28;25091;-68
2021/08/05 10:31:48;;;;;;;18.50;15.30;;;21.50;99.90;;;;;;4993492;28;25132;-70
2021/08/05 10:34:15;;;;;;;20.10;14.77;;;21.60;99.90;;;;;;4993407;28;25073;-68
2021/08/05 10:36:41;;;;;;;19.80;14.70;;;21.90;99.90;;;;;;4991508;28;25098;-68
2021/08/05 10:39:06;;;;;;;17.17;15.38;;;22.20;99.90;;;;;;4990841;28;25079;-68
2021/08/05 10:41:32;;;;;;;22.38;16.67;;;22.30;99.90;;;;;;4991563;28;25089;-67
2021/08/05 10:43:59;;;;;;;20.48;16.40;;;22.20;99.90;;;;;;4991966;28;25072;-67
2021/08/05 10:46:32;;;;;;;17.35;14.70;;;22.00;99.90;;;;;;4992071;28;25129;-67
2021/08/05 10:49:00;;;;;;;16.95;13.50;;;21.80;99.90;;;;;;4992761;28;25127;-69
2021/08/05 10:51:26;;;;;;;13.98;11.60;;;21.80;99.90;;;;;;4991984;28;25082;-69
2021/08/05 10:53:51;;;;;;;15.57;12.02;;;22.10;99.90;;;;;;4992209;28;25146;-69
2021/08/05 10:56:23;;;;;;;14.20;11.63;;;22.40;99.90;;;;;;4991987;28;25121;-69
2021/08/05 10:59:03;;;;;;;16.23;12.18;;;22.70;99.90;;;;;;4999945;28;25099;-67
2021/08/05 11:01:53;;;;;;;14.32;11.25;;;22.70;99.90;;;;;;4998455;28;25080;-68
2021/08/05 11:04:39;;;;;;;12.18;10.48;;;22.80;99.90;;;;;;4995036;28;25187;-68
2021/08/05 11:07:23;;;;;;;10.52;8.75;;;22.90;99.90;;;;;;4981858;28;25055;-68
2021/08/05 11:09:50;;;;;;;11.13;9.80;;;22.90;99.90;;;;;;4991253;28;25169;-68
2021/08/05 11:12:34;;;;;;;12.95;10.57;;;23.10;99.90;;;;;;4992729;28;25132;-69
2021/08/05 11:15:00;;;;;;;19.40;13.00;;;23.50;99.90;;;;;;4980449;28;25154;-67
2021/08/05 11:17:26;;;;;;;15.18;12.82;;;23.40;99.90;;;;;;4990382;28;25143;-68
2021/08/05 11:20:16;;;;;;;19.25;15.55;;;23.50;99.90;;;;;;5005755;28;25074;-67
2021/08/05 11:22:41;;;;;;;23.17;14.07;;;23.60;99.90;;;;;;4980669;28;25151;-69
2021/08/05 11:25:07;;;;;;;16.17;13.93;;;23.80;99.90;;;;;;4989154;28;25121;-69
2021/08/05 11:27:33;;;;;;;16.23;14.32;;;24.00;99.90;;;;;;4991453;28;25051;-68
2021/08/05 11:29:59;;;;;;;17.88;14.13;;;24.00;99.90;;;;;;4990800;28;25082;-68
2021/08/05 11:32:25;;;;;;;20.30;16.88;;;23.30;99.90;;;;;;4990125;28;25060;-69
2021/08/05 11:34:58;;;;;;;19.65;16.15;;;22.90;99.90;;;;;;4991823;28;25073;-69
2021/08/05 11:37:25;;;;;;;21.13;17.70;;;22.80;99.90;;;;;;4988469;28;25055;-67
2021/08/05 11:39:53;;;;;;;20.48;15.95;;;22.80;99.90;;;;;;4990479;28;25071;-68
2021/08/05 11:42:23;;;;;;;17.17;13.77;;;22.80;99.90;;;;;;4991829;28;25055;-68
2021/08/05 11:44:58;;;;;;;21.73;17.20;;;22.90;99.90;;;;;;4995820;28;25131;-68
2021/08/05 11:47:39;;;;;;;19.20;14.80;;;22.90;99.90;;;;;;4990407;28;25073;-68
2021/08/05 11:50:12;;;;;;;19.08;14.73;;;23.10;99.90;;;;;;4991130;28;25065;-67
2021/08/05 11:52:43;;;;;;;21.35;15.25;;;23.30;99.90;;;;;;5004076;28;25054;-70
2021/08/05 11:55:22;;;;;;;15.55;13.27;;;23.70;99.90;;;;;;4979056;28;25095;-69
2021/08/05 11:57:56;;;;;;;20.83;16.98;;;24.00;99.90;;;;;;4989951;28;25082;-68
2021/08/05 12:00:27;;;;;;;18.48;13.68;;;24.10;99.90;;;;;;4989002;28;25134;-68
2021/08/05 12:03:01;;;;;;;16.87;13.00;;;24.20;99.90;;;;;;4989899;28;25075;-67
2021/08/05 12:05:28;;;;;;;17.52;13.23;;;24.50;99.90;;;;;;4988647;28;25113;-71
2021/08/05 12:07:54;;;;;;;20.95;15.23;;;24.70;99.90;;;;;;4989494;28;25087;-69
2021/08/05 12:10:23;;;;;;;17.55;14.43;;;24.40;99.90;;;;;;4988316;28;25101;-70
2021/08/05 12:12:55;;;;;;;16.70;13.13;;;24.10;99.90;;;;;;4989817;28;25057;-68
2021/08/05 12:15:37;;;;;;;;;;;23.80;99.90;;;;;;4987712;28;28092;-70
2021/08/05 12:18:16;;;;;;;15.03;13.07;;;24.00;99.90;;;;;;4989385;28;24086;-70
2021/08/05 12:20:48;;;;;;;14.30;12.80;;;24.20;99.90;;;;;;4988586;28;25074;-69
2021/08/05 12:23:28;;;;;;;17.17;14.25;;;24.40;99.90;;;;;;4988252;28;25074;-68
2021/08/05 12:26:07;;;;;;;15.80;12.18;;;24.60;99.90;;;;;;4998255;28;25151;-69
2021/08/05 12:28:36;;;;;;;15.63;13.88;;;24.80;99.90;;;;;;4987445;28;25089;-69
2021/08/05 12:31:04;;;;;;;13.13;11.40;;;24.40;99.90;;;;;;4998162;28;25077;-68